Time;durP1;ratioP1;P1;durP2;ratioP2;P2;SDS_P1;SDS_P2;PMS_P1;PMS_P2;Temp;Humidity;BMP_temperature;BMP_pressure;BME280_temperature;BME280_humidity;BME280_pressure;Samples;Min_cycle;Max_cycle;Signal;HPM_P1;HPM_P2
2022/11/11 00:00:25;;;;;;;13.50;4.75;;;13.60;99.90;;;;;;5093557;28;20108;-68
2022/11/11 00:02:53;;;;;;;14.48;4.50;;;13.50;99.90;;;;;;5090265;28;20024;-68
2022/11/11 00:05:20;;;;;;;11.27;4.05;;;13.50;99.90;;;;;;5093095;28;20038;-68
2022/11/11 00:07:46;;;;;;;16.30;4.50;;;13.60;99.90;;;;;;5093045;28;20110;-68
2022/11/11 00:10:12;;;;;;;11.73;3.50;;;13.60;99.90;;;;;;5091848;28;20421;-68
2022/11/11 00:12:39;;;;;;;10.82;3.70;;;13.60;99.90;;;;;;5091244;28;20020;-68
2022/11/11 00:15:05;;;;;;;13.85;4.15;;;13.50;99.90;;;;;;5092376;28;20042;-67
2022/11/11 00:25:46;;;;;;;15.57;4.95;;;13.50;99.90;;;;;;5090342;28;20054;-69
2022/11/11 00:28:11;;;;;;;12.07;3.92;;;13.50;99.90;;;;;;5091149;28;20444;-67
2022/11/11 00:30:37;;;;;;;9.25;3.78;;;13.50;99.90;;;;;;5090547;28;20048;-68
2022/11/11 00:33:03;;;;;;;11.18;4.30;;;13.50;99.90;;;;;;5088093;28;20363;-68
2022/11/11 00:40:58;;;;;;;10.60;4.20;;;13.50;99.90;;;;;;5090832;28;20039;-67
2022/11/11 00:43:23;;;;;;;16.42;4.25;;;13.50;99.90;;;;;;5088631;28;20341;-69
2022/11/11 00:45:49;;;;;;;13.40;4.20;;;13.50;99.90;;;;;;5089344;28;20023;-68
2022/11/11 00:50:59;;;;;;;18.08;5.07;;;13.50;99.90;;;;;;5089176;28;20376;-67
2022/11/11 00:53:28;;;;;;;17.73;5.70;;;13.40;99.90;;;;;;5088728;28;20015;-68
2022/11/11 00:55:56;;;;;;;16.17;5.53;;;13.40;99.90;;;;;;5089904;28;20012;-67
2022/11/11 00:58:22;;;;;;;18.33;5.68;;;13.30;99.90;;;;;;5088260;28;20036;-69
2022/11/11 01:00:54;;;;;;;12.52;4.90;;;13.30;99.90;;;;;;5089608;28;20028;-67
2022/11/11 01:03:21;;;;;;;16.55;5.75;;;13.20;99.90;;;;;;5089273;28;20024;-68
2022/11/11 01:05:47;;;;;;;16.48;6.70;;;13.20;99.90;;;;;;5085149;28;20446;-67
2022/11/11 01:08:13;;;;;;;21.80;7.07;;;13.20;99.90;;;;;;5089865;28;20020;-69
2022/11/11 01:10:40;;;;;;;18.42;7.13;;;13.20;99.90;;;;;;5089827;28;20032;-69
2022/11/11 01:13:12;;;;;;;17.15;8.45;;;13.10;99.90;;;;;;5090190;28;20460;-67
2022/11/11 01:15:44;;;;;;;17.95;7.70;;;13.10;99.90;;;;;;5089697;28;20356;-68
2022/11/11 01:18:11;;;;;;;16.57;8.07;;;13.20;99.90;;;;;;5089293;28;20132;-69
2022/11/11 01:20:37;;;;;;;19.02;7.03;;;13.10;99.90;;;;;;5094753;28;20111;-69
2022/11/11 01:23:04;;;;;;;18.15;7.55;;;13.10;99.90;;;;;;5093852;28;20020;-67
2022/11/11 01:25:35;;;;;;;23.65;7.97;;;13.10;99.90;;;;;;5092156;28;20024;-70
2022/11/11 01:28:01;;;;;;;16.40;6.20;;;13.00;99.90;;;;;;5093308;28;20378;-69
2022/11/11 01:30:27;;;;;;;17.65;7.68;;;12.90;99.90;;;;;;5088245;28;20047;-68
2022/11/11 01:32:52;;;;;;;17.35;7.45;;;12.90;99.90;;;;;;5088224;28;20028;-68
2022/11/11 01:35:18;;;;;;;22.67;9.00;;;12.90;99.90;;;;;;5095009;28;20012;-68
2022/11/11 01:37:44;;;;;;;27.48;9.65;;;12.90;99.90;;;;;;5094412;28;20077;-68
2022/11/11 01:40:10;;;;;;;19.20;8.77;;;12.90;99.90;;;;;;5095157;28;20028;-68
2022/11/11 01:43:16;;;;;;;17.67;7.40;;;12.80;99.90;;;;;;5094760;28;20028;-68
2022/11/11 01:45:51;;;;;;;17.02;8.48;;;12.80;99.90;;;;;;5094151;28;20020;-67
2022/11/11 01:51:45;;;;;;;18.75;8.48;;;12.70;99.90;;;;;;5089597;28;20379;-68
2022/11/11 01:54:23;;;;;;;19.77;8.07;;;12.70;99.90;;;;;;5086219;28;20079;-68
2022/11/11 01:56:54;;;;;;;22.20;9.43;;;12.60;99.90;;;;;;5095694;28;20090;-68
2022/11/11 01:59:20;;;;;;;20.00;9.38;;;12.60;99.90;;;;;;5089900;28;20035;-68
2022/11/11 02:01:46;;;;;;;26.30;10.10;;;12.60;99.90;;;;;;5084888;28;20028;-68
2022/11/11 02:07:03;;;;;;;23.48;11.60;;;12.40;99.90;;;;;;5094411;28;20035;-68
2022/11/11 02:09:29;;;;;;;17.77;9.27;;;12.40;99.90;;;;;;5089540;28;20020;-68
2022/11/11 02:15:01;;;;;;;30.30;12.20;;;12.30;99.90;;;;;;5050382;28;20065;-68
2022/11/11 02:17:29;;;;;;;31.77;13.02;;;12.20;99.90;;;;;;5064978;28;20103;-68
2022/11/11 02:19:58;;;;;;;26.38;11.85;;;12.10;99.90;;;;;;5072945;28;20128;-68
2022/11/11 02:22:32;;;;;;;28.13;13.25;;;12.10;99.90;;;;;;5081301;28;20448;-68
2022/11/11 02:25:00;;;;;;;21.80;9.88;;;12.10;99.90;;;;;;5076892;28;20096;-68
2022/11/11 02:27:29;;;;;;;25.98;12.68;;;12.00;99.90;;;;;;5075719;28;20020;-68
2022/11/11 02:29:56;;;;;;;24.83;11.82;;;12.00;99.90;;;;;;5074377;28;20115;-68
2022/11/11 02:32:22;;;;;;;29.27;13.48;;;12.10;99.90;;;;;;5085141;28;20043;-68
2022/11/11 02:34:48;;;;;;;31.27;13.80;;;12.10;99.90;;;;;;5091669;28;20379;-68
2022/11/11 02:37:18;;;;;;;29.30;13.13;;;12.10;99.90;;;;;;5094505;28;20012;-67
2022/11/11 02:39:46;;;;;;;26.42;10.55;;;12.10;99.90;;;;;;5086269;28;20425;-67
2022/11/11 02:42:14;;;;;;;30.92;13.65;;;12.10;99.90;;;;;;5086426;28;20073;-68
2022/11/11 02:44:40;;;;;;;28.90;13.23;;;12.10;99.90;;;;;;5094580;28;20027;-68
2022/11/11 02:47:06;;;;;;;26.98;12.25;;;12.10;99.90;;;;;;5094390;28;20047;-68
2022/11/11 02:49:31;;;;;;;29.05;13.55;;;12.10;99.90;;;;;;5094085;28;20027;-68
2022/11/11 02:51:57;;;;;;;26.42;13.40;;;12.10;99.90;;;;;;5094511;28;20371;-68
2022/11/11 02:54:22;;;;;;;28.17;12.90;;;12.10;99.90;;;;;;5080963;28;20043;-67
2022/11/11 02:57:06;;;;;;;30.80;15.23;;;12.10;99.90;;;;;;5091185;28;20529;-68
2022/11/11 02:59:35;;;;;;;28.38;13.65;;;12.10;99.90;;;;;;5080892;28;20064;-68
2022/11/11 03:02:01;;;;;;;32.85;14.75;;;12.10;99.90;;;;;;5083551;28;20419;-67
2022/11/11 03:04:26;;;;;;;32.80;15.50;;;12.10;99.90;;;;;;5088220;28;20073;-67
2022/11/11 03:06:52;;;;;;;21.80;10.18;;;12.10;99.90;;;;;;5077181;28;20107;-67
2022/11/11 03:09:17;;;;;;;33.80;14.20;;;12.10;99.90;;;;;;5094000;28;20020;-67
2022/11/11 03:11:43;;;;;;;29.85;13.15;;;12.10;99.90;;;;;;5085847;28;20036;-67
2022/11/11 03:14:08;;;;;;;31.48;15.27;;;12.10;99.90;;;;;;5085675;28;20020;-68
2022/11/11 03:19:18;;;;;;;34.53;16.45;;;12.10;99.90;;;;;;5085953;28;20036;-67
2022/11/11 03:21:44;;;;;;;28.55;13.50;;;12.10;99.90;;;;;;5082054;28;20032;-67
2022/11/11 03:24:10;;;;;;;35.65;15.45;;;12.20;99.90;;;;;;5081723;28;20344;-67
2022/11/11 03:26:36;;;;;;;26.08;11.75;;;12.20;99.90;;;;;;5087608;28;20028;-67
2022/11/11 03:29:02;;;;;;;25.60;13.15;;;12.20;99.90;;;;;;5076889;28;20103;-67
2022/11/11 03:31:28;;;;;;;28.63;14.50;;;12.20;99.90;;;;;;5087179;28;20032;-67
2022/11/11 03:33:54;;;;;;;28.52;13.95;;;12.20;99.90;;;;;;5083180;28;20035;-67
2022/11/11 03:36:19;;;;;;;30.90;14.45;;;12.10;99.90;;;;;;5087864;28;20028;-68
2022/11/11 03:38:45;;;;;;;27.75;14.43;;;12.10;99.90;;;;;;5076744;28;20021;-67
2022/11/11 03:41:10;;;;;;;33.80;15.15;;;12.10;99.90;;;;;;5089552;28;20027;-67
2022/11/11 03:43:36;;;;;;;33.30;14.50;;;12.20;99.90;;;;;;5082296;28;20034;-67
2022/11/11 03:46:03;;;;;;;27.23;12.88;;;12.10;99.90;;;;;;5093394;28;20352;-67
2022/11/11 03:48:32;;;;;;;26.25;13.48;;;12.10;99.90;;;;;;5079112;28;20076;-67
2022/11/11 03:50:57;;;;;;;32.33;13.63;;;12.10;99.90;;;;;;5089988;28;20349;-67
2022/11/11 03:53:23;;;;;;;32.17;14.85;;;12.10;99.90;;;;;;5089317;28;20040;-67
2022/11/11 03:55:50;;;;;;;27.38;12.50;;;12.10;99.90;;;;;;5091691;28;20070;-68
2022/11/11 03:58:16;;;;;;;28.02;13.85;;;12.10;99.90;;;;;;5080959;28;20549;-68
2022/11/11 04:00:42;;;;;;;32.78;14.18;;;12.10;99.90;;;;;;5088587;28;20028;-68
2022/11/11 04:11:35;;;;;;;34.40;14.95;;;12.00;99.90;;;;;;5088526;28;20040;-68
2022/11/11 04:16:47;;;;;;;36.60;17.50;;;12.10;99.90;;;;;;5081081;28;20356;-67
2022/11/11 04:21:58;;;;;;;34.80;18.02;;;12.10;99.90;;;;;;5082917;28;20015;-67
2022/11/11 04:27:17;;;;;;;37.60;17.35;;;12.20;99.90;;;;;;5089445;28;20373;-67
2022/11/11 04:29:45;;;;;;;31.35;17.10;;;12.10;99.90;;;;;;5081001;28;20036;-68
2022/11/11 04:34:59;;;;;;;31.55;15.10;;;12.20;99.90;;;;;;5093043;28;20483;-67
2022/11/11 04:37:27;;;;;;;27.80;12.07;;;12.10;99.90;;;;;;5092678;28;20056;-67
2022/11/11 04:42:38;;;;;;;28.08;11.60;;;12.10;99.90;;;;;;5087736;28;20560;-67
2022/11/11 04:48:05;;;;;;;32.50;16.92;;;12.10;99.90;;;;;;5083840;28;20035;-67
2022/11/11 04:50:36;;;;;;;31.05;17.45;;;12.10;99.90;;;;;;5091278;28;20024;-67
2022/11/11 04:53:03;;;;;;;35.88;15.40;;;12.10;99.90;;;;;;5076745;28;20032;-67
2022/11/11 04:58:15;;;;;;;24.73;11.63;;;12.10;99.90;;;;;;5095466;28;20055;-67
2022/11/11 05:00:40;;;;;;;28.52;13.20;;;12.20;99.90;;;;;;5096875;28;20036;-68
2022/11/11 05:03:15;;;;;;;28.10;12.57;;;12.10;99.90;;;;;;5079925;28;20042;-67
2022/11/11 05:09:00;;;;;;;25.23;12.75;;;12.10;99.90;;;;;;5088028;28;20119;-67
2022/11/11 05:11:29;;;;;;;33.22;15.63;;;12.00;99.90;;;;;;5078524;28;20043;-68
2022/11/11 05:22:28;;;;;;;30.67;16.33;;;12.00;99.90;;;;;;5095930;28;20372;-67
2022/11/11 05:27:38;;;;;;;31.73;15.95;;;12.00;99.90;;;;;;5091105;28;20077;-67
2022/11/11 05:30:05;;;;;;;28.90;14.20;;;12.00;99.90;;;;;;5085044;28;20044;-67
2022/11/11 05:32:31;;;;;;;32.10;14.23;;;12.00;99.90;;;;;;5090498;28;20154;-67
2022/11/11 05:34:57;;;;;;;30.30;13.13;;;12.00;99.90;;;;;;5079283;28;20472;-67
2022/11/11 05:37:22;;;;;;;30.70;13.82;;;12.00;99.90;;;;;;5090800;28;20077;-67
2022/11/11 05:39:48;;;;;;;30.38;16.08;;;12.00;99.90;;;;;;5096007;28;20096;-68
2022/11/11 05:42:14;;;;;;;27.95;14.93;;;12.00;99.90;;;;;;5083993;28;20024;-67
2022/11/11 05:44:40;;;;;;;30.30;14.18;;;12.00;99.90;;;;;;5093649;28;20058;-67
2022/11/11 05:47:06;;;;;;;34.30;16.88;;;12.00;99.90;;;;;;5093154;28;20119;-67
2022/11/11 05:49:31;;;;;;;33.95;16.80;;;11.90;99.90;;;;;;5082177;28;20016;-68
2022/11/11 05:51:58;;;;;;;30.88;16.00;;;11.90;99.90;;;;;;5085505;28;20032;-68
2022/11/11 05:54:23;;;;;;;27.98;13.18;;;11.90;99.90;;;;;;5089543;28;20440;-67
2022/11/11 05:56:49;;;;;;;35.63;17.48;;;11.80;99.90;;;;;;5079140;28;20032;-68
2022/11/11 05:59:15;;;;;;;35.75;16.73;;;11.70;99.90;;;;;;5091334;28;20093;-67
2022/11/11 06:01:41;;;;;;;35.47;15.75;;;11.70;99.90;;;;;;5081001;28;20027;-68
2022/11/11 06:04:07;;;;;;;34.15;15.55;;;11.70;99.90;;;;;;5095473;28;20024;-68
2022/11/11 06:06:35;;;;;;;24.52;11.50;;;11.70;99.90;;;;;;5095413;28;20024;-68
2022/11/11 06:09:02;;;;;;;32.47;13.57;;;11.70;99.90;;;;;;5078702;28;20025;-67
2022/11/11 06:11:27;;;;;;;31.77;16.10;;;11.60;99.90;;;;;;5089500;28;20028;-68
2022/11/11 06:13:54;;;;;;;31.42;15.88;;;11.50;99.90;;;;;;5084950;28;20020;-67
2022/11/11 06:16:19;;;;;;;37.35;15.85;;;11.50;99.90;;;;;;5095448;28;20016;-67
2022/11/11 06:18:45;;;;;;;37.25;20.30;;;11.50;99.90;;;;;;5078111;28;20046;-67
2022/11/11 06:21:11;;;;;;;35.00;15.70;;;11.50;99.90;;;;;;5091569;28;20055;-67
2022/11/11 06:23:37;;;;;;;37.15;19.65;;;11.60;99.90;;;;;;5082379;28;20432;-68
2022/11/11 06:26:12;;;;;;;36.47;18.33;;;11.60;99.90;;;;;;5095027;28;20016;-67
2022/11/11 06:28:52;;;;;;;30.08;14.02;;;11.70;99.90;;;;;;5093569;28;20024;-67
2022/11/11 06:31:20;;;;;;;31.88;15.52;;;11.70;99.90;;;;;;5079816;28;20040;-68
2022/11/11 06:33:45;;;;;;;30.67;15.10;;;11.70;99.90;;;;;;5083424;28;20034;-67
2022/11/11 06:36:14;;;;;;;33.90;15.93;;;11.60;99.90;;;;;;5083085;28;20017;-67
2022/11/11 06:38:40;;;;;;;30.20;14.52;;;11.50;99.90;;;;;;5090981;28;20023;-67
2022/11/11 06:41:07;;;;;;;31.13;14.43;;;11.50;99.90;;;;;;5078041;28;20028;-67
2022/11/11 06:43:32;;;;;;;29.40;13.73;;;11.40;99.90;;;;;;5094753;28;20031;-67
2022/11/11 06:45:58;;;;;;;34.08;16.60;;;11.30;99.90;;;;;;5094682;28;20020;-67
2022/11/11 06:48:27;;;;;;;33.05;16.50;;;11.30;99.90;;;;;;5092018;28;20363;-67
2022/11/11 06:50:54;;;;;;;33.05;16.65;;;11.30;99.90;;;;;;5094030;28;20038;-67
2022/11/11 06:53:21;;;;;;;33.97;17.05;;;11.20;99.90;;;;;;5093278;28;20020;-67
2022/11/11 06:55:47;;;;;;;36.90;19.50;;;11.10;99.90;;;;;;5094780;28;20023;-67
2022/11/11 06:58:15;;;;;;;34.60;15.40;;;11.10;99.90;;;;;;5094615;28;20468;-67
2022/11/11 07:00:41;;;;;;;40.00;19.30;;;11.10;99.90;;;;;;5078655;28;20024;-68
2022/11/11 07:03:08;;;;;;;34.28;16.17;;;11.10;99.90;;;;;;5088880;28;20081;-68
2022/11/11 07:05:34;;;;;;;34.63;17.73;;;11.00;99.90;;;;;;5094447;28;20023;-67
2022/11/11 07:08:04;;;;;;;37.47;18.33;;;11.00;99.90;;;;;;5093970;28;20031;-68
2022/11/11 07:10:31;;;;;;;33.05;16.40;;;11.00;99.90;;;;;;5093556;28;20028;-68
2022/11/11 07:12:57;;;;;;;36.90;18.15;;;11.00;99.90;;;;;;5086190;28;20025;-67
2022/11/11 07:15:22;;;;;;;39.63;18.25;;;11.00;99.90;;;;;;5088920;28;20512;-69
2022/11/11 07:17:48;;;;;;;34.17;16.90;;;11.00;99.90;;;;;;5084938;28;20024;-67
2022/11/11 07:20:14;;;;;;;43.90;18.80;;;11.00;99.90;;;;;;5086342;28;20024;-67
2022/11/11 07:22:39;;;;;;;41.67;18.30;;;11.00;99.90;;;;;;5087043;28;20064;-67
2022/11/11 07:25:05;;;;;;;38.58;18.58;;;11.00;99.90;;;;;;5093317;28;20032;-67
2022/11/11 07:27:31;;;;;;;37.15;16.48;;;11.00;99.90;;;;;;5087727;28;20021;-67
2022/11/11 07:29:57;;;;;;;40.22;19.75;;;11.10;99.90;;;;;;5083748;28;20047;-67
2022/11/11 07:32:22;;;;;;;38.53;19.08;;;11.10;99.90;;;;;;5080244;28;20044;-67
2022/11/11 07:34:49;;;;;;;33.63;16.67;;;11.20;99.90;;;;;;5090126;28;20031;-67
2022/11/11 07:37:15;;;;;;;37.65;18.38;;;11.30;99.90;;;;;;5077341;28;20096;-67
2022/11/11 07:39:40;;;;;;;37.60;17.90;;;11.30;99.90;;;;;;5085535;28;20128;-67
2022/11/11 07:42:06;;;;;;;36.42;18.27;;;11.40;99.90;;;;;;5082749;28;20032;-67
2022/11/11 07:44:31;;;;;;;38.65;18.48;;;11.50;99.90;;;;;;5092978;28;20024;-68
2022/11/11 07:46:57;;;;;;;32.70;16.17;;;11.50;99.90;;;;;;5092862;28;20503;-66
2022/11/11 07:49:22;;;;;;;35.90;15.40;;;11.50;99.90;;;;;;5088031;28;20423;-67
2022/11/11 07:51:48;;;;;;;31.70;14.93;;;11.50;99.90;;;;;;5072957;28;20048;-67
2022/11/11 07:54:14;;;;;;;33.95;18.65;;;11.50;99.90;;;;;;5078904;28;20050;-68
2022/11/11 07:56:39;;;;;;;29.48;14.57;;;11.50;99.90;;;;;;5089244;28;20028;-67
2022/11/11 07:59:05;;;;;;;31.33;15.00;;;11.50;99.90;;;;;;5090720;28;20032;-67
2022/11/11 08:01:30;;;;;;;35.30;16.77;;;11.50;99.90;;;;;;5093552;28;20016;-67
2022/11/11 08:03:56;;;;;;;28.83;14.10;;;11.50;99.90;;;;;;5082994;28;20081;-67
2022/11/11 08:06:22;;;;;;;27.83;13.10;;;11.50;99.90;;;;;;5086079;28;20020;-67
2022/11/11 08:08:48;;;;;;;34.13;17.60;;;11.60;99.90;;;;;;5076549;28;20035;-67
2022/11/11 08:11:15;;;;;;;37.90;19.20;;;11.60;99.90;;;;;;5089144;28;20053;-67
2022/11/11 08:13:42;;;;;;;36.60;17.73;;;11.70;99.90;;;;;;5080869;28;20020;-67
2022/11/11 08:16:09;;;;;;;40.97;18.85;;;11.70;99.90;;;;;;5087664;28;20308;-66
2022/11/11 08:18:35;;;;;;;30.63;15.35;;;11.70;99.90;;;;;;5084859;28;20024;-66
2022/11/11 08:21:01;;;;;;;36.03;18.27;;;11.70;99.90;;;;;;5092832;28;20027;-66
2022/11/11 08:23:33;;;;;;;33.95;17.02;;;11.70;99.90;;;;;;5087045;28;20024;-67
2022/11/11 08:26:04;;;;;;;33.05;17.30;;;11.80;99.90;;;;;;5078158;28;20031;-67
2022/11/11 08:28:32;;;;;;;36.88;19.13;;;11.80;99.90;;;;;;5077020;28;20070;-67
2022/11/11 08:30:58;;;;;;;34.63;18.17;;;11.80;99.90;;;;;;5091171;28;20042;-67
2022/11/11 08:33:24;;;;;;;33.95;16.02;;;11.80;99.90;;;;;;5088268;28;20020;-67
2022/11/11 08:35:53;;;;;;;36.33;16.50;;;11.90;99.90;;;;;;5092478;28;20028;-67
2022/11/11 08:38:19;;;;;;;36.42;17.80;;;11.90;99.90;;;;;;5083783;28;20021;-67
2022/11/11 08:40:45;;;;;;;34.70;17.30;;;11.90;99.90;;;;;;5088224;28;20024;-68
2022/11/11 08:43:11;;;;;;;40.30;19.77;;;12.00;99.90;;;;;;5085479;28;20026;-68
2022/11/11 08:45:36;;;;;;;37.50;18.88;;;12.00;99.90;;;;;;5090986;28;20098;-68
2022/11/11 08:48:02;;;;;;;31.80;15.95;;;12.00;99.90;;;;;;5093121;28;20019;-68
2022/11/11 08:50:28;;;;;;;32.53;16.80;;;12.10;99.90;;;;;;5090937;28;20059;-68
2022/11/11 08:52:54;;;;;;;28.55;14.00;;;12.10;99.90;;;;;;5092826;28;20028;-68
2022/11/11 08:55:19;;;;;;;33.50;18.10;;;12.10;99.90;;;;;;5090571;28;20048;-68
2022/11/11 08:57:45;;;;;;;37.90;18.45;;;12.10;99.90;;;;;;5088507;28;20020;-68
2022/11/11 09:00:11;;;;;;;33.80;16.55;;;12.10;99.90;;;;;;5090562;28;20487;-68
2022/11/11 09:02:37;;;;;;;34.83;19.00;;;12.10;99.90;;;;;;5075914;28;20094;-68
2022/11/11 09:05:03;;;;;;;44.97;19.17;;;12.10;99.90;;;;;;5089829;28;20036;-69
2022/11/11 09:07:29;;;;;;;37.88;19.05;;;12.10;99.90;;;;;;5087355;28;20012;-68
2022/11/11 09:09:55;;;;;;;33.13;16.65;;;12.20;99.90;;;;;;5091577;28;20039;-69
2022/11/11 09:12:20;;;;;;;32.63;18.00;;;12.20;99.90;;;;;;5089955;28;20086;-68
2022/11/11 09:14:47;;;;;;;32.60;17.40;;;12.20;99.90;;;;;;5092290;28;20064;-69
2022/11/11 09:17:12;;;;;;;37.20;19.67;;;12.20;99.90;;;;;;5087843;28;20012;-67
2022/11/11 09:19:38;;;;;;;33.60;18.30;;;12.30;99.90;;;;;;5085001;28;20035;-68
2022/11/11 09:22:04;;;;;;;34.05;18.67;;;12.40;99.90;;;;;;5090002;28;20498;-68
2022/11/11 09:24:30;;;;;;;35.78;18.25;;;12.40;99.90;;;;;;5087355;28;20016;-68
2022/11/11 09:26:55;;;;;;;29.35;14.50;;;12.50;99.90;;;;;;5088708;28;20032;-68
2022/11/11 09:29:21;;;;;;;32.47;17.23;;;12.50;99.90;;;;;;5090706;28;20040;-68
2022/11/11 09:31:46;;;;;;;32.55;17.30;;;12.50;99.90;;;;;;5090966;28;20040;-68
2022/11/11 09:34:13;;;;;;;32.97;15.43;;;12.50;99.90;;;;;;5091194;28;20036;-68
2022/11/11 09:36:38;;;;;;;32.42;17.45;;;12.50;99.90;;;;;;5090788;28;20028;-68
2022/11/11 09:39:04;;;;;;;34.30;16.20;;;12.50;99.90;;;;;;5091675;28;20032;-69
2022/11/11 09:41:40;;;;;;;29.52;15.43;;;12.50;99.90;;;;;;5094635;28;20024;-68
2022/11/11 09:44:34;;;;;;;32.58;15.63;;;12.50;99.90;;;;;;5094039;28;20081;-66
2022/11/11 09:47:33;;;;;;;33.92;17.85;;;12.60;99.90;;;;;;5093162;28;20008;-69
2022/11/11 09:50:04;;;;;;;35.78;17.63;;;12.70;99.90;;;;;;5089934;28;20513;-66
2022/11/11 09:52:45;;;;;;;32.20;17.60;;;12.80;99.90;;;;;;5090831;28;20499;-66
2022/11/11 09:55:17;;;;;;;31.57;16.80;;;12.90;99.90;;;;;;5082875;28;20016;-67
2022/11/11 09:57:58;;;;;;;24.30;11.82;;;13.00;99.90;;;;;;5094355;28;20018;-68
2022/11/11 10:00:29;;;;;;;35.00;18.15;;;13.10;99.90;;;;;;5089780;28;20452;-69
2022/11/11 10:03:05;;;;;;;28.65;13.32;;;13.20;99.90;;;;;;5092047;28;20020;-69
2022/11/11 10:05:37;;;;;;;29.10;15.13;;;13.30;99.90;;;;;;5094434;28;20020;-69
2022/11/11 10:08:24;;;;;;;25.67;12.77;;;13.40;99.90;;;;;;5094441;28;20050;-68
2022/11/11 10:10:52;;;;;;;28.95;15.63;;;13.50;99.90;;;;;;5093952;28;20444;-70
2022/11/11 10:13:35;;;;;;;23.70;10.25;;;13.60;99.90;;;;;;5094426;28;20507;-69
2022/11/11 10:16:20;;;;;;;28.08;14.93;;;13.80;99.90;;;;;;5092853;28;20023;-69
2022/11/11 10:18:54;;;;;;;28.52;15.73;;;13.90;99.90;;;;;;5093362;28;20016;-68
2022/11/11 10:21:43;;;;;;;27.38;14.40;;;14.00;99.90;;;;;;5093359;28;20022;-68
2022/11/11 10:24:29;;;;;;;26.98;15.50;;;14.20;99.90;;;;;;5093720;28;20088;-69
2022/11/11 10:26:55;;;;;;;26.55;14.15;;;14.40;99.90;;;;;;5091786;28;20020;-69
2022/11/11 10:29:25;;;;;;;32.05;17.02;;;14.50;99.90;;;;;;5093506;28;20051;-69
2022/11/11 10:32:11;;;;;;;26.85;15.35;;;14.50;99.90;;;;;;5093619;28;20023;-70
2022/11/11 10:34:36;;;;;;;25.27;13.30;;;14.50;99.90;;;;;;5091834;28;20081;-68
2022/11/11 10:37:12;;;;;;;21.58;10.75;;;14.50;99.90;;;;;;5094251;28;20477;-69
2022/11/11 10:40:12;;;;;;;26.40;13.65;;;14.60;99.90;;;;;;5091808;28;20469;-68
2022/11/11 10:42:37;;;;;;;25.58;11.77;;;14.50;99.90;;;;;;5091784;28;20020;-68
2022/11/11 10:45:11;;;;;;;28.30;15.10;;;14.50;99.90;;;;;;5093764;28;20359;-69
2022/11/11 10:47:46;;;;;;;23.08;10.93;;;14.50;99.90;;;;;;5092018;28;20031;-69
2022/11/11 10:50:25;;;;;;;32.83;17.85;;;14.40;99.90;;;;;;5093005;28;20106;-68
2022/11/11 10:53:00;;;;;;;24.63;11.68;;;14.40;99.90;;;;;;5090980;28;20035;-68
2022/11/11 10:55:34;;;;;;;25.67;12.73;;;14.40;99.90;;;;;;5093364;28;20438;-68
2022/11/11 10:58:13;;;;;;;25.98;11.80;;;14.40;99.90;;;;;;5093368;28;20035;-68
2022/11/11 11:00:42;;;;;;;31.92;17.15;;;14.30;99.90;;;;;;5090757;28;20048;-68
2022/11/11 11:03:22;;;;;;;25.20;12.43;;;14.10;99.90;;;;;;5091499;28;20069;-68
2022/11/11 11:06:01;;;;;;;31.63;17.05;;;14.20;99.90;;;;;;5080830;28;20023;-69
2022/11/11 11:08:32;;;;;;;25.58;13.88;;;14.20;99.90;;;;;;5093530;28;20036;-68
2022/11/11 11:11:03;;;;;;;31.90;16.60;;;14.30;99.90;;;;;;5092099;28;20032;-68
2022/11/11 11:13:40;;;;;;;31.30;15.65;;;14.30;99.90;;;;;;5092467;28;20107;-69
2022/11/11 11:16:12;;;;;;;30.38;15.95;;;14.30;99.90;;;;;;5092469;28;20032;-69
2022/11/11 11:18:37;;;;;;;31.52;16.63;;;14.20;99.90;;;;;;5092829;28;20051;-69
2022/11/11 11:21:05;;;;;;;27.35;12.75;;;14.20;99.90;;;;;;5092185;28;20078;-68
2022/11/11 11:23:43;;;;;;;31.55;17.05;;;14.20;99.90;;;;;;5090146;28;20034;-68
2022/11/11 11:26:11;;;;;;;35.33;18.65;;;14.10;99.90;;;;;;5092247;28;20023;-69
2022/11/11 11:28:55;;;;;;;28.70;16.10;;;14.20;99.90;;;;;;5092742;28;20095;-68
2022/11/11 11:31:35;;;;;;;30.65;17.25;;;14.30;99.90;;;;;;5091253;28;20020;-68
2022/11/11 11:34:01;;;;;;;24.83;12.50;;;14.30;99.90;;;;;;5088089;28;20024;-68
2022/11/11 11:36:27;;;;;;;28.63;15.50;;;14.30;99.90;;;;;;5091880;28;20020;-67
2022/11/11 11:38:52;;;;;;;29.10;16.13;;;14.20;99.90;;;;;;5089591;28;20016;-69
2022/11/11 11:41:40;;;;;;;27.65;14.10;;;14.20;99.90;;;;;;5076966;28;20054;-68
2022/11/11 11:44:25;;;;;;;29.80;14.50;;;14.20;99.90;;;;;;5090359;28;20020;-68
2022/11/11 11:46:57;;;;;;;29.20;16.65;;;14.20;99.90;;;;;;5072714;28;20496;-69
2022/11/11 11:49:49;;;;;;;;;;;14.30;99.90;;;;;;5072319;28;20078;-69
2022/11/11 11:52:15;;;;;;;27.15;15.27;;;14.60;99.90;;;;;;5088934;28;19908;-69
2022/11/11 11:54:51;;;;;;;29.70;17.38;;;14.70;99.90;;;;;;5091971;28;20039;-69
2022/11/11 11:57:26;;;;;;;28.30;15.85;;;14.80;99.90;;;;;;5086925;28;20027;-69
2022/11/11 12:00:03;;;;;;;27.27;14.70;;;14.80;99.90;;;;;;5091900;28;20020;-68
2022/11/11 12:02:44;;;;;;;27.70;14.80;;;14.70;99.90;;;;;;5083921;28;20027;-68
2022/11/11 12:05:15;;;;;;;28.85;14.90;;;14.60;99.90;;;;;;5072513;28;20024;-68
2022/11/11 12:08:01;;;;;;;28.33;14.63;;;14.50;99.90;;;;;;5073355;28;20025;-69
2022/11/11 12:10:46;;;;;;;29.02;15.73;;;14.30;99.90;;;;;;5074023;28;20269;-69
2022/11/11 12:13:43;;;;;;;30.88;16.30;;;14.30;99.90;;;;;;5072837;28;20032;-69
2022/11/11 12:16:24;;;;;;;32.00;17.55;;;14.30;99.90;;;;;;5081176;28;20028;-69
2022/11/11 12:19:04;;;;;;;28.02;15.38;;;14.20;99.90;;;;;;5093004;28;20047;-68
2022/11/11 12:21:48;;;;;;;28.10;15.05;;;14.20;99.90;;;;;;5093188;28;20059;-69
2022/11/11 12:24:28;;;;;;;28.85;16.67;;;14.20;99.90;;;;;;5088692;28;20362;-67
2022/11/11 12:27:15;;;;;;;26.25;13.25;;;14.10;99.90;;;;;;5089149;28;20046;-68
2022/11/11 12:30:06;;;;;;;30.67;15.02;;;14.10;99.90;;;;;;5091218;28;20142;-69
2022/11/11 12:33:05;;;;;;;31.17;16.73;;;14.00;99.90;;;;;;5092401;28;20135;-69
2022/11/11 12:35:49;;;;;;;25.25;11.45;;;13.90;99.90;;;;;;5092849;28;20103;-67
2022/11/11 12:38:36;;;;;;;27.95;13.88;;;14.00;99.90;;;;;;5092775;28;20057;-67
2022/11/11 12:41:23;;;;;;;28.08;14.57;;;14.00;99.90;;;;;;5092951;28;20356;-66
2022/11/11 12:44:09;;;;;;;37.13;18.65;;;14.00;99.90;;;;;;5093191;28;20024;-68
2022/11/11 12:47:00;;;;;;;27.77;15.38;;;14.00;99.90;;;;;;5092526;28;20059;-68
2022/11/11 12:49:51;;;;;;;30.45;14.02;;;14.00;99.90;;;;;;5074896;28;20021;-69
2022/11/11 12:52:39;;;;;;;31.30;16.37;;;14.00;99.90;;;;;;5072071;28;20453;-70
2022/11/11 12:55:11;;;;;;;28.20;13.77;;;14.10;99.90;;;;;;5075765;28;20047;-68
2022/11/11 12:58:00;;;;;;;31.52;16.75;;;14.20;99.90;;;;;;5093450;28;20020;-66
2022/11/11 13:00:26;;;;;;;28.80;11.98;;;14.20;99.90;;;;;;5092745;28;20023;-67
2022/11/11 13:03:10;;;;;;;27.60;13.63;;;14.30;99.90;;;;;;5092530;28;20103;-68
2022/11/11 13:06:00;;;;;;;28.77;15.43;;;14.40;99.90;;;;;;5092947;28;20482;-68
2022/11/11 13:08:38;;;;;;;21.48;10.88;;;14.50;99.90;;;;;;5093286;28;20030;-68
2022/11/11 13:11:06;;;;;;;29.23;12.68;;;14.50;99.90;;;;;;5092804;28;20036;-67
2022/11/11 13:13:46;;;;;;;25.48;13.43;;;14.50;99.90;;;;;;5091845;28;20024;-67
2022/11/11 13:16:12;;;;;;;29.50;15.77;;;14.60;99.90;;;;;;5096351;28;20035;-68
2022/11/11 13:18:49;;;;;;;29.00;15.77;;;14.50;99.90;;;;;;5097085;28;20028;-69
2022/11/11 13:21:20;;;;;;;28.52;13.50;;;14.60;99.90;;;;;;5095891;28;20475;-67
2022/11/11 13:23:45;;;;;;;27.60;14.15;;;14.60;99.90;;;;;;5094747;28;20022;-68
2022/11/11 13:26:33;;;;;;;27.27;15.10;;;14.50;99.90;;;;;;5092054;28;20016;-69
2022/11/11 13:29:36;;;;;;;26.98;14.20;;;14.50;99.90;;;;;;5085544;28;20444;-68
2022/11/11 13:32:07;;;;;;;32.42;16.33;;;14.50;99.90;;;;;;5084968;28;20089;-67
2022/11/11 13:34:34;;;;;;;28.38;15.65;;;14.60;99.90;;;;;;5096577;28;20471;-69
2022/11/11 13:37:02;;;;;;;30.02;16.45;;;14.70;99.90;;;;;;5096213;28;20031;-68
2022/11/11 13:39:32;;;;;;;28.67;14.98;;;14.80;99.90;;;;;;5079553;28;20107;-67
2022/11/11 13:41:59;;;;;;;27.45;15.15;;;14.80;99.90;;;;;;5096370;28;20020;-68
2022/11/11 13:44:33;;;;;;;22.23;12.07;;;14.70;99.90;;;;;;5085269;28;20024;-68
2022/11/11 13:47:03;;;;;;;28.42;16.10;;;14.70;99.90;;;;;;5094897;28;20023;-68
2022/11/11 13:49:34;;;;;;;21.27;10.00;;;14.70;99.90;;;;;;5079314;28;20085;-67
2022/11/11 13:52:01;;;;;;;;;;;14.80;99.90;;;;;;5094458;28;20031;-67
2022/11/11 13:54:41;;;;;;;30.13;16.08;;;14.70;99.90;;;;;;5088226;28;19918;-67